createdAt,value
2023-02-14T00:01:12.372Z,4.93
2023-02-14T00:03:39.481Z,5.78
2023-02-14T00:06:12.621Z,5.00
2023-02-14T00:08:40.875Z,6.53
2023-02-14T00:11:08.957Z,4.82
2023-02-14T00:13:35.435Z,5.40
2023-02-14T00:16:02.002Z,5.93
2023-02-14T00:18:48.461Z,4.80
2023-02-14T00:21:14.948Z,5.35
2023-02-14T00:23:41.372Z,5.35
2023-02-14T00:26:13.903Z,5.82
2023-02-14T00:28:40.290Z,5.50
2023-02-14T00:31:06.810Z,5.32
2023-02-14T00:33:33.223Z,5.10
2023-02-14T00:36:03.036Z,5.05
2023-02-14T00:38:29.445Z,4.93
2023-02-14T00:40:55.897Z,6.70
2023-02-14T00:43:22.355Z,5.38
2023-02-14T00:45:48.753Z,5.75
2023-02-14T00:48:15.196Z,4.68
2023-02-14T00:50:41.748Z,5.53
2023-02-14T00:53:08.114Z,5.38
2023-02-14T00:55:34.498Z,6.47
2023-02-14T00:58:00.857Z,6.72
2023-02-14T01:00:27.382Z,4.65
2023-02-14T01:02:53.776Z,4.63
2023-02-14T01:05:20.255Z,5.45
2023-02-14T01:07:46.619Z,5.47
2023-02-14T01:10:13.053Z,5.57
2023-02-14T01:12:39.577Z,4.93
2023-02-14T01:15:06.253Z,4.97
2023-02-14T01:17:32.679Z,5.55
2023-02-14T01:19:59.151Z,5.72
2023-02-14T01:22:25.688Z,5.55
2023-02-14T01:24:52.116Z,5.57
2023-02-14T01:27:18.477Z,5.30
2023-02-14T01:29:44.886Z,5.38
2023-02-14T01:32:11.373Z,5.22
2023-02-14T01:34:37.786Z,7.60
2023-02-14T01:37:04.143Z,5.03
2023-02-14T01:39:30.564Z,5.45
2023-02-14T01:41:56.974Z,5.40
2023-02-14T01:44:26.333Z,5.10
2023-02-14T01:46:52.923Z,5.28
2023-02-14T01:49:27.037Z,7.35
2023-02-14T01:52:03.873Z,6.32
2023-02-14T01:54:33.486Z,6.63
2023-02-14T01:57:05.410Z,6.15
2023-02-14T01:59:38.118Z,6.22
2023-02-14T02:02:06.000Z,4.82
2023-02-14T02:04:42.962Z,6.05
2023-02-14T02:07:14.379Z,5.32
2023-02-14T02:09:54.814Z,4.15
2023-02-14T02:12:21.746Z,5.22
2023-02-14T02:14:52.724Z,6.03
2023-02-14T02:17:44.297Z,5.53
2023-02-14T02:20:35.495Z,6.68
2023-02-14T02:23:17.115Z,5.63
2023-02-14T02:25:58.718Z,6.53
2023-02-14T02:28:45.610Z,6.32
2023-02-14T02:31:20.820Z,8.48
2023-02-14T02:33:50.084Z,5.70
2023-02-14T02:36:47.143Z,6.05
2023-02-14T02:39:51.112Z,6.43
2023-02-14T02:42:46.856Z,5.80
2023-02-14T02:46:05.915Z,5.45
2023-02-14T02:49:03.455Z,6.30
2023-02-14T02:52:09.782Z,7.93
2023-02-14T02:54:42.420Z,6.22
2023-02-14T02:57:18.806Z,5.90
2023-02-14T02:59:46.497Z,6.35
2023-02-14T03:02:23.978Z,5.90
2023-02-14T03:05:00.182Z,6.05
2023-02-14T03:07:35.976Z,7.15
2023-02-14T03:10:21.820Z,7.72
2023-02-14T03:13:26.309Z,5.80
2023-02-14T03:16:11.781Z,5.85
2023-02-14T03:19:25.615Z,7.10
2023-02-14T03:21:59.136Z,6.70
2023-02-14T03:24:47.376Z,7.28
2023-02-14T03:27:21.811Z,6.07
2023-02-14T03:30:02.502Z,7.43
2023-02-14T03:32:35.780Z,6.93
2023-02-14T03:35:20.725Z,6.10
2023-02-14T03:37:55.084Z,5.95
2023-02-14T03:40:42.492Z,6.93
2023-02-14T03:43:14.341Z,6.20
2023-02-14T03:45:52.080Z,7.20
2023-02-14T03:48:21.729Z,6.57
2023-02-14T03:50:51.544Z,5.82
2023-02-14T03:53:25.880Z,6.65
2023-02-14T03:56:03.407Z,6.90
2023-02-14T03:58:38.924Z,5.45
2023-02-14T04:01:42.678Z,6.35
2023-02-14T04:04:10.702Z,5.97
2023-02-14T04:06:37.111Z,5.47
2023-02-14T04:09:03.652Z,6.50
2023-02-14T04:11:34.953Z,6.13
2023-02-14T04:14:02.546Z,6.85
2023-02-14T04:16:28.995Z,5.18
2023-02-14T04:19:13.743Z,7.30
2023-02-14T04:21:40.207Z,6.25
2023-02-14T04:24:06.620Z,5.65
2023-02-14T04:26:33.038Z,5.97
2023-02-14T04:28:59.452Z,7.18
2023-02-14T04:31:25.839Z,6.53
2023-02-14T04:33:52.323Z,6.18
2023-02-14T04:36:18.810Z,5.20
2023-02-14T04:38:45.226Z,6.32
2023-02-14T04:41:11.651Z,5.55
2023-02-14T04:43:38.085Z,6.18
2023-02-14T04:46:04.570Z,6.82
2023-02-14T04:48:30.934Z,5.60
2023-02-14T04:50:57.441Z,6.32
2023-02-14T04:53:25.131Z,5.35
2023-02-14T04:55:51.525Z,4.78
2023-02-14T04:58:18.331Z,5.07
2023-02-14T05:00:44.955Z,4.88
2023-02-14T05:03:11.465Z,5.30
2023-02-14T05:05:38.136Z,4.95
2023-02-14T05:08:04.548Z,5.72
2023-02-14T05:10:31.019Z,4.93
2023-02-14T05:12:57.377Z,5.70
2023-02-14T05:15:23.818Z,6.60
2023-02-14T05:17:50.244Z,5.25
2023-02-14T05:20:16.795Z,4.93
2023-02-14T05:22:43.207Z,6.32
2023-02-14T05:25:09.631Z,6.20
2023-02-14T05:27:36.055Z,5.38
2023-02-14T05:30:02.570Z,5.03
2023-02-14T05:32:29.068Z,9.25
2023-02-14T05:34:55.689Z,5.40
2023-02-14T05:37:22.090Z,5.55
2023-02-14T05:39:48.501Z,5.72
2023-02-14T05:42:14.970Z,4.70
2023-02-14T05:44:41.329Z,6.47
2023-02-14T05:47:07.742Z,4.82
2023-02-14T05:49:35.518Z,5.30
2023-02-14T05:52:01.957Z,6.32
2023-02-14T05:54:28.470Z,6.93
2023-02-14T05:56:55.162Z,4.93
2023-02-14T05:59:21.698Z,8.02
2023-02-14T06:01:48.264Z,5.40
2023-02-14T06:04:14.858Z,6.57
2023-02-14T06:06:41.262Z,4.93
2023-02-14T06:09:07.717Z,6.32
2023-02-14T06:11:34.091Z,5.25
2023-02-14T06:14:00.452Z,7.57
2023-02-14T06:16:26.900Z,5.43
2023-02-14T06:18:53.352Z,6.90
2023-02-14T06:21:19.819Z,6.70
2023-02-14T06:23:46.386Z,19.00
2023-02-14T06:26:12.773Z,6.57
2023-02-14T06:28:39.598Z,9.20
2023-02-14T06:31:06.188Z,9.73
2023-02-14T06:33:32.597Z,10.45
2023-02-14T06:35:59.151Z,15.02
2023-02-14T06:38:25.547Z,12.95
2023-02-14T06:40:51.938Z,16.33
2023-02-14T06:43:18.403Z,10.18
2023-02-14T06:45:46.482Z,7.50
2023-02-14T06:48:12.858Z,10.02
2023-02-14T06:50:39.326Z,9.07
2023-02-14T06:53:06.218Z,9.15
2023-02-14T06:55:32.796Z,9.98
2023-02-14T06:57:59.214Z,10.15
2023-02-14T07:00:25.981Z,9.35
2023-02-14T07:02:52.685Z,7.18
2023-02-14T07:05:19.322Z,7.25
2023-02-14T07:07:46.234Z,6.57
2023-02-14T07:10:12.974Z,9.25
2023-02-14T07:12:40.530Z,6.07
2023-02-14T07:15:08.929Z,7.35
2023-02-14T07:17:35.473Z,6.10
2023-02-14T07:20:03.090Z,6.47
2023-02-14T07:22:30.408Z,7.70
2023-02-14T07:24:57.122Z,6.38
2023-02-14T07:27:23.574Z,7.68
2023-02-14T07:29:50.076Z,8.82
2023-02-14T07:32:16.665Z,7.85
2023-02-14T07:34:43.263Z,5.22
2023-02-14T07:37:09.639Z,7.30
2023-02-14T07:39:36.052Z,7.32
2023-02-14T07:42:02.442Z,6.53
2023-02-14T07:44:28.877Z,6.50
2023-02-14T07:46:55.438Z,6.15
2023-02-14T07:49:22.353Z,5.70
2023-02-14T07:51:48.821Z,9.25
2023-02-14T07:54:15.356Z,5.65
2023-02-14T07:56:41.812Z,6.55
2023-02-14T07:59:08.205Z,7.63
2023-02-14T08:01:34.621Z,6.00
2023-02-14T08:04:01.015Z,7.03
2023-02-14T08:06:27.991Z,7.32
2023-02-14T08:08:54.524Z,5.35
2023-02-14T08:11:39.567Z,6.15
2023-02-14T08:14:07.287Z,5.55
2023-02-14T08:16:34.599Z,7.03
2023-02-14T08:19:01.879Z,7.63
2023-02-14T08:21:28.651Z,6.60
2023-02-14T08:23:55.016Z,8.07
2023-02-14T08:26:21.398Z,8.85
2023-02-14T08:28:47.896Z,7.50
2023-02-14T08:31:34.504Z,8.55
2023-02-14T08:34:01.888Z,4.75
2023-02-14T08:36:28.276Z,5.60
2023-02-14T08:38:55.676Z,6.35
2023-02-14T08:41:22.091Z,6.05
2023-02-14T08:43:48.549Z,6.30
2023-02-14T08:46:16.734Z,5.88
2023-02-14T08:48:44.202Z,6.40
2023-02-14T08:51:13.484Z,6.85
2023-02-14T08:53:41.726Z,6.03
2023-02-14T08:56:13.232Z,5.30
2023-02-14T08:58:40.376Z,6.15
2023-02-14T09:01:17.934Z,7.25
2023-02-14T09:03:44.899Z,6.47
2023-02-14T09:06:14.513Z,8.65
2023-02-14T09:08:40.993Z,9.38
2023-02-14T09:11:15.678Z,14.35
2023-02-14T09:13:42.913Z,13.40
2023-02-14T09:16:11.487Z,15.45
2023-02-14T09:18:38.406Z,11.77
2023-02-14T09:21:14.237Z,14.23
2023-02-14T09:23:40.760Z,16.00
2023-02-14T09:26:09.733Z,16.65
2023-02-14T09:28:36.589Z,15.82
2023-02-14T09:31:13.675Z,16.50
2023-02-14T09:33:40.649Z,21.17
2023-02-14T09:36:19.395Z,19.55
2023-02-14T09:38:46.842Z,20.52
2023-02-14T09:41:41.931Z,24.63
2023-02-14T09:44:16.872Z,26.55
2023-02-14T09:46:50.347Z,21.92
2023-02-14T09:49:22.596Z,28.88
2023-02-14T09:51:53.193Z,25.35
2023-02-14T09:54:26.216Z,28.58
2023-02-14T09:57:03.875Z,28.75
2023-02-14T09:59:48.742Z,25.40
2023-02-14T10:02:30.309Z,24.60
2023-02-14T10:05:26.326Z,27.20
2023-02-14T10:07:57.663Z,27.52
2023-02-14T10:10:40.840Z,31.08
2023-02-14T10:13:29.763Z,23.17
2023-02-14T10:16:16.758Z,26.50
2023-02-14T10:21:23.718Z,22.15
2023-02-14T10:24:04.189Z,26.63
2023-02-14T10:26:37.143Z,23.25
2023-02-14T10:29:06.659Z,21.38
2023-02-14T10:31:55.619Z,24.15
2023-02-14T10:34:48.010Z,23.42
2023-02-14T10:37:35.587Z,24.75
2023-02-14T10:40:25.051Z,23.92
2023-02-14T10:43:28.004Z,23.15
2023-02-14T10:46:19.803Z,21.65
2023-02-14T10:49:02.757Z,23.40
2023-02-14T10:51:46.088Z,26.02
2023-02-14T10:54:18.200Z,24.38
2023-02-14T10:56:50.348Z,22.17
2023-02-14T10:59:49.473Z,20.30
2023-02-14T11:02:18.405Z,22.92
2023-02-14T11:04:47.125Z,20.35
2023-02-14T11:07:15.263Z,23.45
2023-02-14T11:09:41.755Z,25.33
2023-02-14T11:12:09.062Z,18.70
2023-02-14T11:14:39.055Z,20.42
2023-02-14T11:17:28.799Z,20.58
2023-02-14T11:20:20.404Z,19.73
2023-02-14T11:22:46.852Z,20.35
2023-02-14T11:25:30.386Z,19.02
2023-02-14T11:27:56.724Z,19.95
2023-02-14T11:30:30.162Z,16.92
2023-02-14T11:32:57.188Z,18.23
2023-02-14T11:35:30.479Z,20.33
2023-02-14T11:37:58.094Z,18.67
2023-02-14T11:40:42.354Z,20.88
2023-02-14T11:43:15.023Z,16.92
2023-02-14T11:45:47.404Z,21.48
2023-02-14T11:48:31.464Z,16.65
2023-02-14T11:51:14.901Z,16.20
2023-02-14T11:53:48.849Z,19.75
2023-02-14T11:56:18.045Z,19.13
2023-02-14T11:58:44.395Z,20.55
2023-02-14T12:01:14.084Z,20.90
2023-02-14T12:03:46.776Z,20.55
2023-02-14T12:06:22.815Z,20.60
2023-02-14T12:08:49.315Z,14.88
2023-02-14T12:11:23.577Z,13.98
2023-02-14T12:13:55.099Z,14.95
2023-02-14T12:16:28.694Z,15.77
2023-02-14T12:19:07.444Z,15.60
2023-02-14T12:21:42.094Z,18.80
2023-02-14T12:24:35.444Z,16.27
2023-02-14T12:27:17.111Z,17.77
2023-02-14T12:29:52.200Z,18.45
2023-02-14T12:32:23.282Z,15.52
2023-02-14T12:34:51.501Z,15.55
2023-02-14T12:37:34.738Z,14.90
2023-02-14T12:40:06.393Z,18.88
2023-02-14T12:42:53.763Z,15.23
2023-02-14T12:45:33.671Z,14.68
2023-02-14T12:48:21.474Z,15.05
2023-02-14T12:51:06.375Z,12.23
2023-02-14T12:53:51.622Z,13.02
2023-02-14T12:56:45.103Z,15.35
2023-02-14T12:59:42.396Z,13.18
2023-02-14T13:02:43.364Z,16.90
2023-02-14T13:05:45.638Z,14.50
2023-02-14T13:08:14.920Z,15.38
2023-02-14T13:11:00.920Z,12.70
2023-02-14T13:13:44.255Z,12.77
2023-02-14T13:16:30.942Z,16.65
2023-02-14T13:19:14.353Z,10.07
2023-02-14T13:21:42.836Z,13.48
2023-02-14T13:24:23.526Z,14.77
2023-02-14T13:26:55.271Z,13.43
2023-02-14T13:29:28.583Z,13.13
2023-02-14T13:32:01.982Z,16.70
2023-02-14T13:34:35.366Z,13.90
2023-02-14T13:37:05.790Z,10.27
2023-02-14T13:39:54.784Z,11.50
2023-02-14T13:42:50.149Z,11.55
2023-02-14T13:45:38.234Z,15.38
2023-02-14T13:48:17.895Z,11.57
2023-02-14T13:51:03.368Z,14.73
2023-02-14T13:53:43.855Z,11.60
2023-02-14T13:56:13.244Z,12.57
2023-02-14T13:58:53.777Z,12.25
2023-02-14T14:01:33.989Z,10.95
2023-02-14T14:04:04.561Z,10.55
2023-02-14T14:07:00.255Z,11.50
2023-02-14T14:09:42.062Z,14.57
2023-02-14T14:12:29.650Z,10.57
2023-02-14T14:15:08.216Z,13.50
2023-02-14T14:17:37.537Z,11.63
2023-02-14T14:20:26.583Z,11.57
2023-02-14T14:22:56.074Z,13.43
2023-02-14T14:25:38.727Z,11.35
2023-02-14T14:28:12.874Z,10.77
2023-02-14T14:30:44.739Z,11.32
2023-02-14T14:33:26.353Z,11.52
2023-02-14T14:36:08.810Z,14.02
2023-02-14T14:38:47.229Z,12.10
2023-02-14T14:41:13.818Z,12.85
2023-02-14T14:43:40.916Z,12.70
2023-02-14T14:46:15.785Z,12.68
2023-02-14T14:48:50.053Z,11.35
2023-02-14T14:51:25.693Z,11.18
2023-02-14T14:54:07.284Z,11.55
2023-02-14T14:56:44.895Z,12.25
2023-02-14T14:59:39.211Z,13.10
2023-02-14T15:02:31.872Z,9.88
2023-02-14T15:05:30.807Z,9.82
2023-02-14T15:07:57.775Z,10.07
2023-02-14T15:10:28.759Z,11.20
2023-02-14T15:13:16.688Z,11.05
2023-02-14T15:15:49.152Z,11.30
2023-02-14T15:18:17.062Z,10.25
2023-02-14T15:20:49.674Z,10.60
2023-02-14T15:23:20.214Z,10.27
2023-02-14T15:25:49.312Z,13.38
2023-02-14T15:28:36.993Z,9.40
2023-02-14T15:31:06.181Z,10.18
2023-02-14T15:33:34.122Z,9.88
2023-02-14T15:36:15.494Z,10.95
2023-02-14T15:38:42.664Z,14.27
2023-02-14T15:41:10.095Z,13.00
2023-02-14T15:43:40.851Z,10.88
2023-02-14T15:46:19.773Z,10.77
2023-02-14T15:48:47.464Z,11.25
2023-02-14T15:51:26.275Z,12.50
2023-02-14T15:54:31.895Z,12.73
2023-02-14T15:56:59.165Z,9.23
2023-02-14T15:59:31.807Z,11.57
2023-02-14T16:02:28.175Z,10.65
2023-02-14T16:04:55.279Z,11.43
2023-02-14T16:07:28.525Z,14.40
2023-02-14T16:10:24.276Z,13.48
2023-02-14T16:12:59.230Z,12.45
2023-02-14T16:15:29.260Z,13.38
2023-02-14T16:17:55.891Z,12.57
2023-02-14T16:20:34.353Z,15.75
2023-02-14T16:23:22.101Z,14.23
2023-02-14T16:25:49.271Z,12.43
2023-02-14T16:28:16.841Z,19.33
2023-02-14T16:30:45.443Z,15.55
2023-02-14T16:33:22.277Z,13.68
2023-02-14T16:35:49.510Z,12.70
2023-02-14T16:38:19.080Z,14.77
2023-02-14T16:40:51.907Z,14.50
2023-02-14T16:43:20.058Z,15.75
2023-02-14T16:45:47.452Z,16.10
2023-02-14T16:48:15.914Z,13.82
2023-02-14T16:50:44.443Z,15.40
2023-02-14T16:53:17.900Z,12.75
2023-02-14T16:55:44.351Z,13.60
2023-02-14T16:58:10.864Z,13.38
2023-02-14T17:00:39.416Z,16.33
2023-02-14T17:03:10.714Z,13.13
2023-02-14T17:05:39.119Z,15.35
2023-02-14T17:08:07.869Z,13.73
2023-02-14T17:10:34.996Z,12.43
2023-02-14T17:13:04.004Z,13.45
2023-02-14T17:15:31.220Z,15.52
2023-02-14T17:18:02.864Z,15.05
2023-02-14T17:20:30.193Z,12.15
2023-02-14T17:22:57.644Z,12.20
2023-02-14T17:25:24.078Z,16.08
2023-02-14T17:27:50.500Z,12.68
2023-02-14T17:30:17.748Z,15.30
2023-02-14T17:32:44.331Z,14.60
2023-02-14T17:35:11.863Z,12.55
2023-02-14T17:37:46.273Z,14.88
2023-02-14T17:40:14.441Z,15.73
2023-02-14T17:42:41.978Z,13.65
2023-02-14T17:45:11.833Z,13.07
2023-02-14T17:47:40.684Z,15.15
2023-02-14T17:50:07.831Z,14.05
2023-02-14T17:52:35.124Z,14.77
2023-02-14T17:55:01.771Z,16.05
2023-02-14T17:57:28.470Z,14.20
2023-02-14T17:59:54.996Z,13.43
2023-02-14T18:02:21.410Z,15.50
2023-02-14T18:04:48.369Z,15.70
2023-02-14T18:07:14.864Z,11.68
2023-02-14T18:09:41.389Z,15.27
2023-02-14T18:12:10.345Z,13.73
2023-02-14T18:14:40.016Z,16.20
2023-02-14T18:17:06.460Z,20.98
2023-02-14T18:19:33.162Z,20.08
2023-02-14T18:21:59.861Z,19.73
2023-02-14T18:24:26.440Z,22.92
2023-02-14T18:26:53.504Z,24.77
2023-02-14T18:29:20.297Z,23.35
2023-02-14T18:31:47.116Z,26.60
2023-02-14T18:34:13.696Z,23.15
2023-02-14T18:36:41.801Z,21.10
2023-02-14T18:39:09.306Z,18.33
2023-02-14T18:41:35.906Z,17.75
2023-02-14T18:44:02.380Z,27.38
2023-02-14T18:46:35.408Z,21.77
2023-02-14T18:49:03.995Z,27.83
2023-02-14T18:51:33.620Z,23.13
2023-02-14T18:54:02.213Z,19.95
2023-02-14T18:56:31.484Z,20.67
2023-02-14T18:59:04.062Z,18.65
2023-02-14T19:01:33.531Z,18.45
2023-02-14T19:04:01.202Z,22.13
2023-02-14T19:06:29.635Z,19.17
2023-02-14T19:08:56.944Z,15.02
2023-02-14T19:11:25.887Z,14.77
2023-02-14T19:13:54.382Z,15.80
2023-02-14T19:16:26.814Z,18.67
2023-02-14T19:18:54.172Z,15.27
2023-02-14T19:21:26.559Z,15.38
2023-02-14T19:23:56.037Z,16.75
2023-02-14T19:26:25.170Z,14.23
2023-02-14T19:28:56.747Z,15.85
2023-02-14T19:31:24.555Z,14.48
2023-02-14T19:33:51.448Z,14.80
2023-02-14T19:36:19.544Z,14.35
2023-02-14T19:38:49.196Z,13.85
2023-02-14T19:41:18.712Z,13.15
2023-02-14T19:43:46.021Z,14.55
2023-02-14T19:46:14.134Z,14.10
2023-02-14T19:48:41.065Z,14.18
2023-02-14T19:51:08.044Z,13.25
2023-02-14T19:53:35.329Z,12.40
2023-02-14T19:56:01.873Z,11.13
2023-02-14T19:58:28.262Z,14.95
2023-02-14T20:00:59.054Z,15.43
2023-02-14T20:03:26.346Z,10.48
2023-02-14T20:05:52.772Z,12.00
2023-02-14T20:08:19.221Z,14.00
2023-02-14T20:10:45.750Z,10.15
2023-02-14T20:13:12.272Z,14.63
2023-02-14T20:15:39.920Z,14.23
2023-02-14T20:18:06.578Z,13.38
2023-02-14T20:20:52.958Z,14.38
2023-02-14T20:23:19.730Z,15.35
2023-02-14T20:25:46.192Z,13.32
2023-02-14T20:28:12.587Z,11.93
2023-02-14T20:30:40.079Z,14.48
2023-02-14T20:33:06.711Z,12.05
2023-02-14T20:35:37.996Z,14.75
2023-02-14T20:38:07.546Z,13.52
2023-02-14T20:40:39.153Z,13.55
2023-02-14T20:43:05.906Z,14.27
2023-02-14T20:45:32.918Z,13.90
2023-02-14T20:48:03.303Z,14.65
2023-02-14T20:50:31.318Z,12.95
2023-02-14T20:52:58.181Z,12.85
2023-02-14T20:55:27.068Z,11.38
2023-02-14T20:57:53.918Z,13.10
2023-02-14T21:00:20.490Z,12.48
2023-02-14T21:02:46.894Z,13.38
2023-02-14T21:05:18.325Z,11.13
2023-02-14T21:07:44.702Z,15.20
2023-02-14T21:10:11.211Z,17.38
2023-02-14T21:12:38.518Z,12.38
2023-02-14T21:15:06.905Z,15.20
2023-02-14T21:17:33.909Z,13.55
2023-02-14T21:20:00.349Z,11.75
2023-02-14T21:22:26.729Z,11.80
2023-02-14T21:24:53.127Z,15.70
2023-02-14T21:27:19.619Z,11.48
2023-02-14T21:29:46.113Z,11.75
2023-02-14T21:32:12.724Z,11.57
2023-02-14T21:34:39.359Z,10.48
2023-02-14T21:37:05.906Z,12.55
2023-02-14T21:39:35.639Z,14.27
2023-02-14T21:42:02.357Z,13.30
2023-02-14T21:44:47.620Z,12.25
2023-02-14T21:47:14.146Z,10.82
2023-02-14T21:49:59.198Z,12.32
2023-02-14T21:52:25.701Z,12.98
2023-02-14T21:54:52.476Z,11.48
2023-02-14T21:57:18.993Z,11.63
2023-02-14T21:59:45.394Z,14.65
2023-02-14T22:02:12.245Z,12.80
2023-02-14T22:04:38.674Z,11.70
2023-02-14T22:07:05.121Z,12.63
2023-02-14T22:09:31.606Z,10.63
2023-02-14T22:11:58.004Z,13.73
2023-02-14T22:14:24.414Z,15.80
2023-02-14T22:16:50.869Z,12.23
2023-02-14T22:19:17.266Z,11.45
2023-02-14T22:21:43.866Z,12.23
2023-02-14T22:24:10.450Z,13.20
2023-02-14T22:26:43.460Z,13.10
2023-02-14T22:29:11.752Z,10.43
2023-02-14T22:31:43.409Z,10.63
2023-02-14T22:34:12.427Z,11.88
2023-02-14T22:36:38.819Z,11.60
2023-02-14T22:39:05.784Z,12.77
2023-02-14T22:41:37.469Z,12.05
2023-02-14T22:44:04.862Z,12.15
2023-02-14T22:46:31.432Z,12.80
2023-02-14T22:48:58.419Z,13.70
2023-02-14T22:51:32.898Z,11.52
2023-02-14T22:54:18.615Z,13.00
2023-02-14T22:56:47.349Z,13.70
2023-02-14T22:59:23.636Z,12.30
2023-02-14T23:01:51.925Z,13.82
2023-02-14T23:04:21.682Z,11.73
2023-02-14T23:06:48.590Z,12.05
2023-02-14T23:09:15.496Z,10.45
2023-02-14T23:11:43.823Z,10.55
2023-02-14T23:14:33.866Z,11.27
2023-02-14T23:17:18.697Z,13.00
2023-02-14T23:20:04.648Z,9.85
2023-02-14T23:22:32.398Z,11.02
2023-02-14T23:25:03.481Z,12.27
2023-02-14T23:27:43.083Z,11.25
2023-02-14T23:30:13.071Z,11.50
2023-02-14T23:32:39.556Z,11.23
2023-02-14T23:35:06.159Z,10.18
2023-02-14T23:37:33.515Z,11.48
2023-02-14T23:39:59.948Z,9.18
2023-02-14T23:42:26.380Z,11.45
2023-02-14T23:44:52.819Z,10.18
2023-02-14T23:47:19.295Z,10.63
2023-02-14T23:49:46.054Z,11.25
2023-02-14T23:52:13.654Z,12.68
2023-02-14T23:54:40.503Z,10.88
2023-02-14T23:57:08.048Z,10.50
2023-02-14T23:59:34.598Z,11.20
